sensor_id;sensor_type;location;lat;lon;timestamp;pressure;altitude;pressure_sealevel;temperature;humidity
69630;BME280;56857;52.212;5.496;2022-12-24T00:00:08;100529.59;;;9.26;100.00
69630;BME280;56857;52.212;5.496;2022-12-24T00:02:35;100527.13;;;9.25;100.00
69630;BME280;56857;52.212;5.496;2022-12-24T00:05:00;100535.22;;;9.23;100.00
69630;BME280;56857;52.212;5.496;2022-12-24T00:07:32;100554.59;;;9.24;100.00
69630;BME280;56857;52.212;5.496;2022-12-24T00:09:58;100542.19;;;9.24;100.00
69630;BME280;56857;52.212;5.496;2022-12-24T00:12:24;100541.19;;;9.25;100.00
69630;BME280;56857;52.212;5.496;2022-12-24T00:14:50;100538.72;;;9.24;100.00
69630;BME280;56857;52.212;5.496;2022-12-24T00:17:23;100543.34;;;9.22;100.00
69630;BME280;56857;52.212;5.496;2022-12-24T00:19:49;100553.09;;;9.21;100.00
69630;BME280;56857;52.212;5.496;2022-12-24T00:22:15;100550.59;;;9.20;100.00
69630;BME280;56857;52.212;5.496;2022-12-24T00:24:41;100560.22;;;9.21;100.00
69630;BME280;56857;52.212;5.496;2022-12-24T00:27:09;100554.91;;;9.21;100.00
69630;BME280;56857;52.212;5.496;2022-12-24T00:29:35;100567.13;;;9.22;100.00
69630;BME280;56857;52.212;5.496;2022-12-24T00:32:03;100565.50;;;9.21;100.00
69630;BME280;56857;52.212;5.496;2022-12-24T00:34:29;100570.59;;;9.22;100.00
69630;BME280;56857;52.212;5.496;2022-12-24T00:36:56;100561.19;;;9.20;100.00
69630;BME280;56857;52.212;5.496;2022-12-24T00:39:29;100582.34;;;9.20;100.00
69630;BME280;56857;52.212;5.496;2022-12-24T00:41:56;100581.38;;;9.21;100.00
69630;BME280;56857;52.212;5.496;2022-12-24T00:44:24;100584.00;;;9.21;100.00
69630;BME280;56857;52.212;5.496;2022-12-24T00:46:52;100582.00;;;9.23;100.00
69630;BME280;56857;52.212;5.496;2022-12-24T00:49:19;100586.31;;;9.24;100.00
69630;BME280;56857;52.212;5.496;2022-12-24T00:51:44;100592.44;;;9.24;100.00
69630;BME280;56857;52.212;5.496;2022-12-24T00:54:13;100591.75;;;9.22;100.00
69630;BME280;56857;52.212;5.496;2022-12-24T00:56:39;100591.75;;;9.22;100.00
69630;BME280;56857;52.212;5.496;2022-12-24T00:59:04;100594.59;;;9.21;100.00
69630;BME280;56857;52.212;5.496;2022-12-24T01:01:30;100614.75;;;9.22;100.00
69630;BME280;56857;52.212;5.496;2022-12-24T01:03:56;100613.75;;;9.23;100.00
69630;BME280;56857;52.212;5.496;2022-12-24T01:06:23;100618.22;;;9.22;100.00
69630;BME280;56857;52.212;5.496;2022-12-24T01:08:50;100624.31;;;9.23;100.00
69630;BME280;56857;52.212;5.496;2022-12-24T01:11:16;100623.34;;;9.24;100.00
69630;BME280;56857;52.212;5.496;2022-12-24T01:13:42;100633.94;;;9.24;100.00
69630;BME280;56857;52.212;5.496;2022-12-24T01:16:17;100634.91;;;9.23;100.00
69630;BME280;56857;52.212;5.496;2022-12-24T01:18:44;100648.31;;;9.21;100.00
69630;BME280;56857;52.212;5.496;2022-12-24T01:21:12;100650.28;;;9.19;100.00
69630;BME280;56857;52.212;5.496;2022-12-24T01:23:38;100646.97;;;9.17;100.00
69630;BME280;56857;52.212;5.496;2022-12-24T01:26:04;100658.38;;;9.18;100.00
69630;BME280;56857;52.212;5.496;2022-12-24T01:28:31;100657.53;;;9.17;100.00
69630;BME280;56857;52.212;5.496;2022-12-24T01:30:58;100674.91;;;9.20;100.00
69630;BME280;56857;52.212;5.496;2022-12-24T01:33:27;100674.59;;;9.15;100.00
69630;BME280;56857;52.212;5.496;2022-12-24T01:35:53;100673.09;;;9.12;100.00
69630;BME280;56857;52.212;5.496;2022-12-24T01:38:19;100674.25;;;9.10;100.00
69630;BME280;56857;52.212;5.496;2022-12-24T01:40:45;100676.38;;;9.06;100.00
69630;BME280;56857;52.212;5.496;2022-12-24T01:43:17;100677.53;;;9.03;100.00
69630;BME280;56857;52.212;5.496;2022-12-24T01:45:47;100682.81;;;9.03;100.00
69630;BME280;56857;52.212;5.496;2022-12-24T01:48:16;100680.50;;;9.00;100.00
69630;BME280;56857;52.212;5.496;2022-12-24T01:50:44;100693.91;;;8.99;100.00
69630;BME280;56857;52.212;5.496;2022-12-24T01:53:13;100687.25;;;8.95;100.00
69630;BME280;56857;52.212;5.496;2022-12-24T01:55:40;100682.47;;;8.90;100.00
69630;BME280;56857;52.212;5.496;2022-12-24T01:58:08;100691.56;;;8.88;100.00
69630;BME280;56857;52.212;5.496;2022-12-24T02:00:35;100697.84;;;8.87;100.00
69630;BME280;56857;52.212;5.496;2022-12-24T02:03:02;100693.84;;;8.82;100.00
69630;BME280;56857;52.212;5.496;2022-12-24T02:05:35;100705.59;;;8.80;100.00
69630;BME280;56857;52.212;5.496;2022-12-24T02:08:05;100714.34;;;8.80;100.00
69630;BME280;56857;52.212;5.496;2022-12-24T02:10:31;100717.81;;;8.81;100.00
69630;BME280;56857;52.212;5.496;2022-12-24T02:12:59;100719.44;;;8.82;100.00
69630;BME280;56857;52.212;5.496;2022-12-24T02:15:28;100718.63;;;8.81;100.00
69630;BME280;56857;52.212;5.496;2022-12-24T02:18:07;100722.28;;;8.80;100.00
69630;BME280;56857;52.212;5.496;2022-12-24T02:32:14;100742.56;;;8.72;100.00
69630;BME280;56857;52.212;5.496;2022-12-24T02:35:07;100742.88;;;8.69;100.00
69630;BME280;56857;52.212;5.496;2022-12-24T02:37:50;100750.59;;;8.62;100.00
69630;BME280;56857;52.212;5.496;2022-12-24T02:40:27;100752.75;;;8.58;100.00
69630;BME280;56857;52.212;5.496;2022-12-24T02:42:57;100756.53;;;8.56;100.00
69630;BME280;56857;52.212;5.496;2022-12-24T02:45:31;100760.31;;;8.53;100.00
69630;BME280;56857;52.212;5.496;2022-12-24T02:47:57;100756.84;;;8.53;100.00
69630;BME280;56857;52.212;5.496;2022-12-24T02:50:24;100753.50;;;8.51;100.00
69630;BME280;56857;52.212;5.496;2022-12-24T02:52:52;100753.81;;;8.48;100.00
69630;BME280;56857;52.212;5.496;2022-12-24T02:55:25;100762.94;;;8.45;100.00
69630;BME280;56857;52.212;5.496;2022-12-24T02:58:07;100770.00;;;8.45;100.00
69630;BME280;56857;52.212;5.496;2022-12-24T03:01:11;100762.38;;;8.42;100.00
69630;BME280;56857;52.212;5.496;2022-12-24T03:03:54;100771.31;;;8.41;100.00
69630;BME280;56857;52.212;5.496;2022-12-24T03:06:50;100779.41;;;8.39;100.00
69630;BME280;56857;52.212;5.496;2022-12-24T03:09:25;100784.69;;;8.39;100.00
69630;BME280;56857;52.212;5.496;2022-12-24T03:11:56;100776.88;;;8.38;100.00
69630;BME280;56857;52.212;5.496;2022-12-24T03:14:24;100776.22;;;8.35;100.00
69630;BME280;56857;52.212;5.496;2022-12-24T03:16:51;100788.75;;;8.33;100.00
69630;BME280;56857;52.212;5.496;2022-12-24T03:19:17;100780.44;;;8.28;100.00
69630;BME280;56857;52.212;5.496;2022-12-24T03:21:46;100784.06;;;8.27;100.00
69630;BME280;56857;52.212;5.496;2022-12-24T03:24:13;100782.56;;;8.25;100.00
69630;BME280;56857;52.212;5.496;2022-12-24T03:26:40;100781.06;;;8.22;100.00
69630;BME280;56857;52.212;5.496;2022-12-24T03:29:07;100780.41;;;8.20;100.00
69630;BME280;56857;52.212;5.496;2022-12-24T03:31:41;100791.94;;;8.19;100.00
69630;BME280;56857;52.212;5.496;2022-12-24T03:34:08;100802.50;;;8.19;100.00
69630;BME280;56857;52.212;5.496;2022-12-24T03:36:34;100801.84;;;8.17;100.00
69630;BME280;56857;52.212;5.496;2022-12-24T03:39:00;100801.97;;;8.16;100.00
69630;BME280;56857;52.212;5.496;2022-12-24T03:41:28;100802.81;;;8.16;100.00
69630;BME280;56857;52.212;5.496;2022-12-24T03:43:54;100809.75;;;8.17;100.00
69630;BME280;56857;52.212;5.496;2022-12-24T03:46:20;100809.75;;;8.17;100.00
69630;BME280;56857;52.212;5.496;2022-12-24T03:48:46;100804.63;;;8.16;100.00
69630;BME280;56857;52.212;5.496;2022-12-24T03:51:23;100803.50;;;8.18;100.00
69630;BME280;56857;52.212;5.496;2022-12-24T03:53:51;100806.31;;;8.17;100.00
69630;BME280;56857;52.212;5.496;2022-12-24T03:56:19;100810.41;;;8.19;100.00
69630;BME280;56857;52.212;5.496;2022-12-24T03:58:46;100806.00;;;8.20;100.00
69630;BME280;56857;52.212;5.496;2022-12-24T04:01:13;100813.56;;;8.23;100.00
69630;BME280;56857;52.212;5.496;2022-12-24T04:03:42;100816.38;;;8.21;100.00
69630;BME280;56857;52.212;5.496;2022-12-24T04:06:13;100809.75;;;8.17;100.00
69630;BME280;56857;52.212;5.496;2022-12-24T04:08:39;100813.66;;;8.13;100.00
69630;BME280;56857;52.212;5.496;2022-12-24T04:11:07;100815.50;;;8.12;100.00
69630;BME280;56857;52.212;5.496;2022-12-24T04:13:33;100824.22;;;8.13;100.00
69630;BME280;56857;52.212;5.496;2022-12-24T04:16:05;100822.75;;;8.10;100.00
69630;BME280;56857;52.212;5.496;2022-12-24T04:18:32;100825.22;;;8.12;100.00
69630;BME280;56857;52.212;5.496;2022-12-24T04:20:58;100815.50;;;8.12;100.00
69630;BME280;56857;52.212;5.496;2022-12-24T04:23:24;100820.94;;;8.11;100.00
69630;BME280;56857;52.212;5.496;2022-12-24T04:25:51;100824.91;;;8.15;100.00
69630;BME280;56857;52.212;5.496;2022-12-24T04:28:17;100821.28;;;8.16;100.00
69630;BME280;56857;52.212;5.496;2022-12-24T04:30:44;100835.88;;;8.20;100.00
69630;BME280;56857;52.212;5.496;2022-12-24T04:33:10;100837.34;;;8.23;100.00
69630;BME280;56857;52.212;5.496;2022-12-24T04:35:39;100832.91;;;8.23;100.00
69630;BME280;56857;52.212;5.496;2022-12-24T04:38:05;100832.59;;;8.26;100.00
69630;BME280;56857;52.212;5.496;2022-12-24T04:40:32;100832.28;;;8.29;100.00
69630;BME280;56857;52.212;5.496;2022-12-24T04:42:57;100840.75;;;8.33;100.00
69630;BME280;56857;52.212;5.496;2022-12-24T04:45:23;100845.03;;;8.34;100.00
69630;BME280;56857;52.212;5.496;2022-12-24T04:47:49;100847.25;;;8.39;100.00
69630;BME280;56857;52.212;5.496;2022-12-24T04:50:15;100849.72;;;8.40;100.00
69630;BME280;56857;52.212;5.496;2022-12-24T04:52:41;100845.94;;;8.43;100.00
69630;BME280;56857;52.212;5.496;2022-12-24T04:55:07;100839.38;;;8.47;100.00
69630;BME280;56857;52.212;5.496;2022-12-24T04:57:34;100837.41;;;8.49;100.00
69630;BME280;56857;52.212;5.496;2022-12-24T05:00:00;100843.34;;;8.51;100.00
69630;BME280;56857;52.212;5.496;2022-12-24T05:02:26;100845.97;;;8.51;100.00
69630;BME280;56857;52.212;5.496;2022-12-24T05:04:52;100847.66;;;8.52;100.00
69630;BME280;56857;52.212;5.496;2022-12-24T05:07:18;100856.09;;;8.55;100.00
69630;BME280;56857;52.212;5.496;2022-12-24T05:09:44;100850.50;;;8.58;100.00
69630;BME280;56857;52.212;5.496;2022-12-24T05:12:10;100852.84;;;8.62;100.00
69630;BME280;56857;52.212;5.496;2022-12-24T05:14:36;100859.63;;;8.64;100.00
69630;BME280;56857;52.212;5.496;2022-12-24T05:17:02;100859.47;;;8.66;100.00
69630;BME280;56857;52.212;5.496;2022-12-24T05:19:29;100857.50;;;8.68;100.00
69630;BME280;56857;52.212;5.496;2022-12-24T05:21:55;100855.38;;;8.71;100.00
69630;BME280;56857;52.212;5.496;2022-12-24T05:24:21;100851.59;;;8.74;100.00
69630;BME280;56857;52.212;5.496;2022-12-24T05:26:56;100853.09;;;8.76;100.00
69630;BME280;56857;52.212;5.496;2022-12-24T05:29:23;100853.59;;;8.80;100.00
69630;BME280;56857;52.212;5.496;2022-12-24T05:31:49;100855.94;;;8.83;100.00
69630;BME280;56857;52.212;5.496;2022-12-24T05:34:16;100861.03;;;8.85;100.00
69630;BME280;56857;52.212;5.496;2022-12-24T05:36:44;100859.22;;;8.85;100.00
69630;BME280;56857;52.212;5.496;2022-12-24T05:39:17;100863.88;;;8.83;100.00
69630;BME280;56857;52.212;5.496;2022-12-24T05:41:44;100867.84;;;8.87;100.00
69630;BME280;56857;52.212;5.496;2022-12-24T05:44:11;100868.66;;;8.88;100.00
69630;BME280;56857;52.212;5.496;2022-12-24T05:46:37;100870.31;;;8.89;100.00
69630;BME280;56857;52.212;5.496;2022-12-24T05:49:03;100867.97;;;8.86;100.00
69630;BME280;56857;52.212;5.496;2022-12-24T05:51:29;100878.56;;;8.86;100.00
69630;BME280;56857;52.212;5.496;2022-12-24T05:53:54;100870.63;;;8.86;100.00
69630;BME280;56857;52.212;5.496;2022-12-24T05:56:22;100871.16;;;8.89;100.00
69630;BME280;56857;52.212;5.496;2022-12-24T05:58:49;100871.81;;;8.91;100.00
69630;BME280;56857;52.212;5.496;2022-12-24T06:01:16;100873.94;;;8.88;100.00
69630;BME280;56857;52.212;5.496;2022-12-24T06:03:43;100875.47;;;8.90;100.00
69630;BME280;56857;52.212;5.496;2022-12-24T06:06:12;100874.63;;;8.90;100.00
69630;BME280;56857;52.212;5.496;2022-12-24T06:08:40;100882.56;;;8.90;100.00
69630;BME280;56857;52.212;5.496;2022-12-24T06:11:09;100887.53;;;8.93;100.00
69630;BME280;56857;52.212;5.496;2022-12-24T06:13:36;100886.72;;;8.92;100.00
69630;BME280;56857;52.212;5.496;2022-12-24T06:16:04;100884.91;;;8.93;100.00
69630;BME280;56857;52.212;5.496;2022-12-24T06:18:34;100886.72;;;8.92;100.00
69630;BME280;56857;52.212;5.496;2022-12-24T06:21:01;100890.00;;;8.94;100.00
69630;BME280;56857;52.212;5.496;2022-12-24T06:23:32;100886.41;;;8.95;100.00
69630;BME280;56857;52.212;5.496;2022-12-24T06:25:59;100897.13;;;8.94;100.00
69630;BME280;56857;52.212;5.496;2022-12-24T06:28:27;100904.06;;;8.95;100.00
69630;BME280;56857;52.212;5.496;2022-12-24T06:30:53;100898.75;;;8.95;100.00
69630;BME280;56857;52.212;5.496;2022-12-24T06:33:19;100899.75;;;8.94;100.00
69630;BME280;56857;52.212;5.496;2022-12-24T06:35:47;100907.56;;;8.95;100.00
69630;BME280;56857;52.212;5.496;2022-12-24T06:38:14;100906.56;;;8.96;100.00
69630;BME280;56857;52.212;5.496;2022-12-24T06:40:41;100906.38;;;8.98;100.00
69630;BME280;56857;52.212;5.496;2022-12-24T06:43:08;100913.66;;;8.96;100.00
69630;BME280;56857;52.212;5.496;2022-12-24T06:45:34;100910.84;;;8.97;100.00
69630;BME280;56857;52.212;5.496;2022-12-24T06:48:00;100911.53;;;8.99;100.00
69630;BME280;56857;52.212;5.496;2022-12-24T06:50:27;100923.75;;;9.00;100.00
69630;BME280;56857;52.212;5.496;2022-12-24T06:52:53;100928.22;;;9.00;100.00
69630;BME280;56857;52.212;5.496;2022-12-24T06:55:25;100936.16;;;9.00;100.00
69630;BME280;56857;52.212;5.496;2022-12-24T06:57:51;100925.56;;;9.00;100.00
69630;BME280;56857;52.212;5.496;2022-12-24T07:00:18;100936.97;;;9.00;100.00
69630;BME280;56857;52.212;5.496;2022-12-24T07:02:44;100933.19;;;9.03;100.00
69630;BME280;56857;52.212;5.496;2022-12-24T07:05:11;100941.81;;;9.05;100.00
69630;BME280;56857;52.212;5.496;2022-12-24T07:07:39;100938.31;;;9.04;100.00
69630;BME280;56857;52.212;5.496;2022-12-24T07:10:06;100941.81;;;9.05;100.00
69630;BME280;56857;52.212;5.496;2022-12-24T07:12:32;100943.47;;;9.06;100.00
69630;BME280;56857;52.212;5.496;2022-12-24T07:14:58;100940.00;;;9.05;100.00
69630;BME280;56857;52.212;5.496;2022-12-24T07:17:24;100949.56;;;9.07;100.00
69630;BME280;56857;52.212;5.496;2022-12-24T07:19:50;100951.22;;;9.08;100.00
69630;BME280;56857;52.212;5.496;2022-12-24T07:22:16;100946.78;;;9.08;100.00
69630;BME280;56857;52.212;5.496;2022-12-24T07:24:43;100940.63;;;9.08;100.00
69630;BME280;56857;52.212;5.496;2022-12-24T07:27:09;100949.44;;;9.08;100.00
69630;BME280;56857;52.212;5.496;2022-12-24T07:29:35;100943.47;;;9.06;100.00
69630;BME280;56857;52.212;5.496;2022-12-24T07:32:01;100957.50;;;9.07;100.00
69630;BME280;56857;52.212;5.496;2022-12-24T07:34:27;100959.63;;;9.03;100.00
69630;BME280;56857;52.212;5.496;2022-12-24T07:36:53;100958.13;;;9.00;100.00
69630;BME280;56857;52.212;5.496;2022-12-24T07:39:19;100960.09;;;8.98;100.00
69630;BME280;56857;52.212;5.496;2022-12-24T07:41:45;100968.19;;;8.97;100.00
69630;BME280;56857;52.212;5.496;2022-12-24T07:44:12;100990.16;;;8.97;100.00
69630;BME280;56857;52.212;5.496;2022-12-24T07:46:38;100991.81;;;8.98;100.00
69630;BME280;56857;52.212;5.496;2022-12-24T07:49:06;100995.16;;;9.00;100.00
69630;BME280;56857;52.212;5.496;2022-12-24T07:51:32;101013.34;;;9.03;100.00
69630;BME280;56857;52.212;5.496;2022-12-24T07:53:58;101012.66;;;9.01;100.00
69630;BME280;56857;52.212;5.496;2022-12-24T07:56:24;101011.69;;;9.02;100.00
69630;BME280;56857;52.212;5.496;2022-12-24T07:58:51;101020.44;;;9.03;100.00
69630;BME280;56857;52.212;5.496;2022-12-24T08:01:17;101034.34;;;9.05;100.00
69630;BME280;56857;52.212;5.496;2022-12-24T08:03:46;101030.84;;;9.04;100.00
69630;BME280;56857;52.212;5.496;2022-12-24T08:06:12;101044.63;;;9.08;100.00
69630;BME280;56857;52.212;5.496;2022-12-24T08:08:38;101042.81;;;9.09;100.00
69630;BME280;56857;52.212;5.496;2022-12-24T08:11:05;101041.97;;;9.08;100.00
69630;BME280;56857;52.212;5.496;2022-12-24T08:13:31;101052.56;;;9.08;100.00
69630;BME280;56857;52.212;5.496;2022-12-24T08:15:57;101052.56;;;9.08;100.00
69630;BME280;56857;52.212;5.496;2022-12-24T08:18:23;101054.22;;;9.09;100.00
69630;BME280;56857;52.212;5.496;2022-12-24T08:20:49;101066.44;;;9.10;100.00
69630;BME280;56857;52.212;5.496;2022-12-24T08:23:18;101057.69;;;9.10;100.00
69630;BME280;56857;52.212;5.496;2022-12-24T08:25:46;101064.63;;;9.11;100.00
69630;BME280;56857;52.212;5.496;2022-12-24T08:28:14;101062.84;;;9.11;100.00
69630;BME280;56857;52.212;5.496;2022-12-24T08:30:41;101071.72;;;9.10;100.00
69630;BME280;56857;52.212;5.496;2022-12-24T08:33:07;101075.19;;;9.11;100.00
69630;BME280;56857;52.212;5.496;2022-12-24T08:35:33;101070.75;;;9.11;100.00
69630;BME280;56857;52.212;5.496;2022-12-24T08:37:59;101070.59;;;9.13;100.00
69630;BME280;56857;52.212;5.496;2022-12-24T08:40:25;101073.94;;;9.15;100.00
69630;BME280;56857;52.212;5.496;2022-12-24T08:42:51;101075.41;;;9.17;100.00
69630;BME280;56857;52.212;5.496;2022-12-24T08:45:18;101083.91;;;9.21;100.00
69630;BME280;56857;52.212;5.496;2022-12-24T08:47:44;101088.03;;;9.23;100.00
69630;BME280;56857;52.212;5.496;2022-12-24T08:50:10;101081.59;;;9.26;100.00
69630;BME280;56857;52.212;5.496;2022-12-24T08:52:36;101095.66;;;9.26;100.00
69630;BME280;56857;52.212;5.496;2022-12-24T08:55:03;101098.16;;;9.28;100.00
69630;BME280;56857;52.212;5.496;2022-12-24T08:57:29;101101.50;;;9.30;100.00
69630;BME280;56857;52.212;5.496;2022-12-24T08:59:55;101100.50;;;9.31;100.00
69630;BME280;56857;52.212;5.496;2022-12-24T09:02:21;101102.97;;;9.33;100.00
69630;BME280;56857;52.212;5.496;2022-12-24T09:04:47;101112.41;;;9.35;100.00
69630;BME280;56857;52.212;5.496;2022-12-24T09:07:13;101117.56;;;9.37;100.00
69630;BME280;56857;52.212;5.496;2022-12-24T09:09:39;101124.50;;;9.38;100.00
69630;BME280;56857;52.212;5.496;2022-12-24T09:12:06;101131.75;;;9.36;100.00
69630;BME280;56857;52.212;5.496;2022-12-24T09:14:32;101125.34;;;9.38;100.00
69630;BME280;56857;52.212;5.496;2022-12-24T09:16:58;101129.50;;;9.41;100.00
69630;BME280;56857;52.212;5.496;2022-12-24T09:19:25;101134.47;;;9.44;100.00
69630;BME280;56857;52.212;5.496;2022-12-24T09:21:51;101137.81;;;9.46;100.00
69630;BME280;56857;52.212;5.496;2022-12-24T09:24:18;101145.28;;;9.50;100.00
69630;BME280;56857;52.212;5.496;2022-12-24T09:26:44;101150.56;;;9.50;100.00
69630;BME280;56857;52.212;5.496;2022-12-24T09:29:10;101157.69;;;9.50;100.00
69630;BME280;56857;52.212;5.496;2022-12-24T09:31:36;101159.19;;;9.52;100.00
69630;BME280;56857;52.212;5.496;2022-12-24T09:34:02;101156.38;;;9.54;100.00
69630;BME280;56857;52.212;5.496;2022-12-24T09:36:28;101161.53;;;9.56;100.00
69630;BME280;56857;52.212;5.496;2022-12-24T09:38:58;101159.53;;;9.58;100.00
69630;BME280;56857;52.212;5.496;2022-12-24T09:44:27;101172.31;;;9.62;100.00
69630;BME280;56857;52.212;5.496;2022-12-24T09:46:58;101180.09;;;9.64;100.00
69630;BME280;56857;52.212;5.496;2022-12-24T09:49:33;101177.31;;;9.65;100.00
69630;BME280;56857;52.212;5.496;2022-12-24T09:52:07;101182.59;;;9.65;100.00
69630;BME280;56857;52.212;5.496;2022-12-24T09:54:38;101181.91;;;9.63;100.00
69630;BME280;56857;52.212;5.496;2022-12-24T09:57:14;101175.94;;;9.61;100.00
69630;BME280;56857;52.212;5.496;2022-12-24T09:59:44;101177.63;;;9.62;100.00
69630;BME280;56857;52.212;5.496;2022-12-24T10:02:14;101172.63;;;9.59;100.00
69630;BME280;56857;52.212;5.496;2022-12-24T10:04:42;101176.94;;;9.60;100.00
69630;BME280;56857;52.212;5.496;2022-12-24T10:23:36;101191.22;;;9.93;100.00
69630;BME280;56857;52.212;5.496;2022-12-24T10:31:11;101197.25;;;10.12;100.00
69630;BME280;56857;52.212;5.496;2022-12-24T10:33:40;101191.34;;;10.18;100.00
69630;BME280;56857;52.212;5.496;2022-12-24T10:36:18;101186.13;;;10.26;100.00
69630;BME280;56857;52.212;5.496;2022-12-24T10:38:45;101191.94;;;10.30;100.00
69630;BME280;56857;52.212;5.496;2022-12-24T10:41:13;101192.13;;;10.36;100.00
69630;BME280;56857;52.212;5.496;2022-12-24T10:43:40;101208.53;;;10.40;100.00
69630;BME280;56857;52.212;5.496;2022-12-24T10:46:21;101214.81;;;10.39;100.00
69630;BME280;56857;52.212;5.496;2022-12-24T10:48:57;101196.97;;;10.41;100.00
69630;BME280;56857;52.212;5.496;2022-12-24T10:51:45;101203.91;;;10.42;100.00
69630;BME280;56857;52.212;5.496;2022-12-24T10:54:18;101203.22;;;10.40;100.00
69630;BME280;56857;52.212;5.496;2022-12-24T10:56:50;101202.41;;;10.39;100.00
69630;BME280;56857;52.212;5.496;2022-12-24T10:59:30;101203.22;;;10.40;100.00
69630;BME280;56857;52.212;5.496;2022-12-24T11:02:00;101209.38;;;10.40;100.00
69630;BME280;56857;52.212;5.496;2022-12-24T11:04:28;101214.69;;;10.40;100.00
69630;BME280;56857;52.212;5.496;2022-12-24T11:06:58;101211.84;;;10.42;100.00
69630;BME280;56857;52.212;5.496;2022-12-24T11:09:31;101215.19;;;10.44;100.00
69630;BME280;56857;52.212;5.496;2022-12-24T11:11:58;101210.03;;;10.42;100.00
69630;BME280;56857;52.212;5.496;2022-12-24T11:14:28;101212.84;;;10.41;100.00
69630;BME280;56857;52.212;5.496;2022-12-24T11:16:56;101211.19;;;10.40;100.00
69630;BME280;56857;52.212;5.496;2022-12-24T11:19:31;101211.66;;;10.35;100.00
69630;BME280;56857;52.212;5.496;2022-12-24T11:22:03;101211.31;;;10.30;100.00
69630;BME280;56857;52.212;5.496;2022-12-24T11:24:33;101221.25;;;10.28;100.00
69630;BME280;56857;52.212;5.496;2022-12-24T11:30:16;101219.09;;;10.32;100.00
69630;BME280;56857;52.212;5.496;2022-12-24T11:32:51;101224.75;;;10.37;100.00
69630;BME280;56857;52.212;5.496;2022-12-24T11:35:39;101227.25;;;10.38;100.00
69630;BME280;56857;52.212;5.496;2022-12-24T11:40:39;101227.41;;;10.37;100.00
69630;BME280;56857;52.212;5.496;2022-12-24T11:43:06;101241.81;;;10.34;100.00
69630;BME280;56857;52.212;5.496;2022-12-24T11:45:38;101225.38;;;10.31;100.00
69630;BME280;56857;52.212;5.496;2022-12-24T11:48:29;101233.81;;;10.26;100.00
69630;BME280;56857;52.212;5.496;2022-12-24T11:51:02;101230.44;;;10.24;100.00
69630;BME280;56857;52.212;5.496;2022-12-24T11:53:45;101237.06;;;10.20;100.00
69630;BME280;56857;52.212;5.496;2022-12-24T11:56:44;101243.50;;;10.17;100.00
69630;BME280;56857;52.212;5.496;2022-12-24T12:01:53;101241.03;;;10.16;100.00
69630;BME280;56857;52.212;5.496;2022-12-24T12:04:29;101242.97;;;10.14;100.00
69630;BME280;56857;52.212;5.496;2022-12-24T12:09:31;101242.84;;;10.15;100.00
69630;BME280;56857;52.212;5.496;2022-12-24T12:12:06;101250.94;;;10.14;100.00
69630;BME280;56857;52.212;5.496;2022-12-24T12:20:11;101246.97;;;10.18;100.00
69630;BME280;56857;52.212;5.496;2022-12-24T12:22:47;101246.81;;;10.19;100.00
69630;BME280;56857;52.212;5.496;2022-12-24T12:25:31;101263.25;;;10.23;100.00
69630;BME280;56857;52.212;5.496;2022-12-24T12:27:59;101273.69;;;10.25;100.00
69630;BME280;56857;52.212;5.496;2022-12-24T12:30:28;101279.00;;;10.25;100.00
69630;BME280;56857;52.212;5.496;2022-12-24T12:33:03;101277.31;;;10.24;100.00
69630;BME280;56857;52.212;5.496;2022-12-24T12:35:36;101277.31;;;10.24;100.00
69630;BME280;56857;52.212;5.496;2022-12-24T12:55:17;101303.00;;;10.05;100.00
69630;BME280;56857;52.212;5.496;2022-12-24T12:57:48;101301.53;;;10.03;99.90
69630;BME280;56857;52.212;5.496;2022-12-24T13:00:17;101300.84;;;10.01;99.87
69630;BME280;56857;52.212;5.496;2022-12-24T13:03:04;101296.69;;;9.98;99.70
69630;BME280;56857;52.212;5.496;2022-12-24T13:11:11;101309.63;;;10.01;99.84
69630;BME280;56857;52.212;5.496;2022-12-24T13:22:17;101311.66;;;10.07;99.01
69630;BME280;56857;52.212;5.496;2022-12-24T13:24:51;101307.88;;;10.10;98.86
69630;BME280;56857;52.212;5.496;2022-12-24T13:27:24;101312.69;;;10.14;98.81
69630;BME280;56857;52.212;5.496;2022-12-24T13:29:59;101318.19;;;10.21;98.32
69630;BME280;56857;52.212;5.496;2022-12-24T13:34:57;101331.13;;;10.24;98.06
69630;BME280;56857;52.212;5.496;2022-12-24T13:37:32;101330.84;;;10.27;97.91
69630;BME280;56857;52.212;5.496;2022-12-24T13:48:01;101342.22;;;10.37;97.09
69630;BME280;56857;52.212;5.496;2022-12-24T13:50:40;101343.16;;;10.36;96.91
69630;BME280;56857;52.212;5.496;2022-12-24T13:56:09;101354.47;;;10.38;96.61
69630;BME280;56857;52.212;5.496;2022-12-24T13:59:09;101350.66;;;10.41;96.94
69630;BME280;56857;52.212;5.496;2022-12-24T14:01:39;101355.81;;;10.42;96.68
69630;BME280;56857;52.212;5.496;2022-12-24T14:04:08;101363.63;;;10.44;96.81
69630;BME280;56857;52.212;5.496;2022-12-24T14:06:39;101365.75;;;10.40;96.14
69630;BME280;56857;52.212;5.496;2022-12-24T14:09:17;101365.38;;;10.35;96.62
69630;BME280;56857;52.212;5.496;2022-12-24T14:14:29;101377.09;;;10.33;96.34
69630;BME280;56857;52.212;5.496;2022-12-24T14:19:59;101378.53;;;10.27;96.14
69630;BME280;56857;52.212;5.496;2022-12-24T14:24:57;101377.72;;;10.27;96.30
69630;BME280;56857;52.212;5.496;2022-12-24T14:27:36;101367.13;;;10.27;96.02
69630;BME280;56857;52.212;5.496;2022-12-24T14:30:16;101377.34;;;10.21;95.90
69630;BME280;56857;52.212;5.496;2022-12-24T14:32:43;101374.00;;;10.19;95.92
69630;BME280;56857;52.212;5.496;2022-12-24T14:37:44;101377.78;;;10.17;95.88
69630;BME280;56857;52.212;5.496;2022-12-24T14:40:17;101392.03;;;10.16;96.08
69630;BME280;56857;52.212;5.496;2022-12-24T14:43:06;101389.81;;;10.11;96.02
69630;BME280;56857;52.212;5.496;2022-12-24T14:48:40;101398.22;;;10.07;96.46